createdAt,value
2017-07-12T00:00:15.950Z,0
2017-07-12T00:01:31.657Z,0
2017-07-12T00:02:47.365Z,0
2017-07-12T00:04:02.818Z,0
2017-07-12T00:05:18.264Z,0
2017-07-12T00:06:33.714Z,0
2017-07-12T00:07:49.579Z,0
2017-07-12T00:09:05.013Z,0
2017-07-12T00:10:20.493Z,0
2017-07-12T00:11:35.952Z,0
2017-07-12T00:12:51.728Z,0
2017-07-12T00:14:07.178Z,0
2017-07-12T00:15:22.595Z,0
2017-07-12T00:16:38.009Z,0
2017-07-12T00:17:53.735Z,0
2017-07-12T00:19:09.138Z,0
2017-07-12T00:20:23.282Z,0
2017-07-12T00:21:38.725Z,0
2017-07-12T00:22:54.424Z,0
2017-07-12T00:24:09.904Z,0
2017-07-12T00:25:25.375Z,0
2017-07-12T00:26:41.027Z,0
2017-07-12T00:27:56.984Z,0
2017-07-12T00:29:12.412Z,0
2017-07-12T00:30:28.039Z,0
2017-07-12T00:31:43.647Z,0
2017-07-12T00:32:59.350Z,0
2017-07-12T00:34:14.860Z,0
2017-07-12T00:35:30.321Z,0
2017-07-12T00:36:45.846Z,0
2017-07-12T00:38:01.547Z,0
2017-07-12T00:39:17.008Z,0
2017-07-12T00:40:32.450Z,0
2017-07-12T00:41:47.868Z,0
2017-07-12T00:43:03.645Z,0
2017-07-12T00:44:19.182Z,0
2017-07-12T00:45:34.801Z,0
2017-07-12T00:46:50.277Z,0
2017-07-12T00:48:07.189Z,0
2017-07-12T00:49:22.660Z,0
2017-07-12T00:50:38.104Z,0
2017-07-12T00:51:53.537Z,0
2017-07-12T00:53:08.844Z,0
2017-07-12T00:54:24.300Z,0
2017-07-12T00:55:39.750Z,0
2017-07-12T00:56:55.209Z,0
2017-07-12T00:58:10.883Z,0
2017-07-12T00:59:26.330Z,0
2017-07-12T01:00:41.737Z,0
2017-07-12T01:01:56.783Z,0
2017-07-12T01:03:12.431Z,0
2017-07-12T01:04:27.923Z,0
2017-07-12T01:05:43.505Z,0
2017-07-12T01:06:59.012Z,0
2017-07-12T01:08:14.337Z,0
2017-07-12T01:09:29.753Z,0
2017-07-12T01:10:45.316Z,0
2017-07-12T01:11:59.457Z,0
2017-07-12T01:13:15.030Z,0
2017-07-12T01:14:30.542Z,0
2017-07-12T01:15:45.992Z,0
2017-07-12T01:17:01.604Z,0
2017-07-12T01:18:17.527Z,0
2017-07-12T01:19:31.669Z,0
2017-07-12T01:20:47.124Z,0
2017-07-12T01:22:02.638Z,0
2017-07-12T01:23:18.340Z,0
2017-07-12T01:24:33.829Z,0
2017-07-12T01:25:49.878Z,0
2017-07-12T01:27:05.566Z,0
2017-07-12T01:28:21.282Z,0
2017-07-12T01:29:35.063Z,0
2017-07-12T01:30:50.501Z,0
2017-07-12T01:32:04.495Z,0
2017-07-12T01:33:20.215Z,0
2017-07-12T01:34:35.603Z,0
2017-07-12T01:35:51.067Z,0
2017-07-12T01:37:06.190Z,0
2017-07-12T01:38:21.887Z,0
2017-07-12T01:39:37.307Z,0
2017-07-12T01:40:52.724Z,0
2017-07-12T01:42:08.130Z,0
2017-07-12T01:43:23.845Z,0
2017-07-12T01:44:39.288Z,0
2017-07-12T01:45:54.782Z,0
2017-07-12T01:47:10.170Z,0
2017-07-12T01:48:25.488Z,0
2017-07-12T01:49:39.604Z,0
2017-07-12T01:50:55.031Z,0
2017-07-12T01:52:10.483Z,0
2017-07-12T01:53:26.461Z,0
2017-07-12T01:54:42.092Z,0
2017-07-12T01:55:57.713Z,0
2017-07-12T01:57:13.187Z,0
2017-07-12T01:58:28.907Z,0
2017-07-12T01:59:44.381Z,0
2017-07-12T02:00:59.979Z,0
2017-07-12T02:02:15.099Z,0
2017-07-12T02:03:30.394Z,0
2017-07-12T02:04:45.861Z,0
2017-07-12T02:06:01.398Z,0
2017-07-12T02:07:16.871Z,0
2017-07-12T02:08:32.521Z,0
2017-07-12T02:09:46.704Z,0
2017-07-12T02:11:02.300Z,0
2017-07-12T02:12:14.998Z,0
2017-07-12T02:13:30.713Z,0
2017-07-12T02:14:46.133Z,0
2017-07-12T02:16:01.679Z,0
2017-07-12T02:17:17.089Z,0
2017-07-12T02:18:32.784Z,0
2017-07-12T02:19:48.226Z,0
2017-07-12T02:21:03.665Z,0
2017-07-12T02:22:19.143Z,0
2017-07-12T02:23:35.066Z,0
2017-07-12T02:24:50.522Z,0
2017-07-12T02:26:05.920Z,0
2017-07-12T02:27:21.395Z,0
2017-07-12T02:28:37.114Z,0
2017-07-12T02:29:52.541Z,0
2017-07-12T02:31:07.696Z,0
2017-07-12T02:32:23.144Z,0
2017-07-12T02:33:38.898Z,0
2017-07-12T02:34:54.517Z,0
2017-07-12T02:36:10.170Z,0
2017-07-12T02:37:24.242Z,0
2017-07-12T02:38:40.135Z,0
2017-07-12T02:39:55.571Z,0
2017-07-12T02:41:10.971Z,0
2017-07-12T02:42:22.367Z,0
2017-07-12T02:43:37.827Z,0
2017-07-12T02:46:22.554Z,0
2017-07-12T02:47:38.007Z,0
2017-07-12T02:48:53.445Z,0
2017-07-12T02:50:09.123Z,0
2017-07-12T02:51:24.561Z,0
2017-07-12T02:52:39.993Z,0
2017-07-12T02:53:55.429Z,0
2017-07-12T02:55:11.187Z,0
2017-07-12T02:56:26.712Z,0
2017-07-12T02:57:41.754Z,0
2017-07-12T02:58:57.206Z,0
2017-07-12T03:00:12.918Z,5
2017-07-12T03:01:28.355Z,5
2017-07-12T03:02:43.792Z,5
2017-07-12T03:03:59.510Z,5
2017-07-12T03:05:15.211Z,5
2017-07-12T03:06:30.594Z,5
2017-07-12T03:07:46.058Z,5
2017-07-12T03:09:01.536Z,10
2017-07-12T03:10:17.231Z,10
2017-07-12T03:11:32.692Z,10
2017-07-12T03:12:48.114Z,10
2017-07-12T03:14:03.540Z,10
2017-07-12T03:15:19.189Z,10
2017-07-12T03:16:34.596Z,10
2017-07-12T03:17:50.045Z,10
2017-07-12T03:19:05.472Z,10
2017-07-12T03:20:21.171Z,10
2017-07-12T03:21:36.598Z,10
2017-07-12T03:22:52.097Z,10
2017-07-12T03:24:07.528Z,10
2017-07-12T03:25:23.316Z,10
2017-07-12T03:26:39.013Z,10
2017-07-12T03:27:54.478Z,10
2017-07-12T03:29:09.900Z,10
2017-07-12T03:30:25.662Z,15
2017-07-12T03:31:41.211Z,15
2017-07-12T03:32:56.726Z,15
2017-07-12T03:34:12.175Z,15
2017-07-12T03:35:27.968Z,15
2017-07-12T03:36:43.420Z,15
2017-07-12T03:37:58.840Z,15
2017-07-12T03:39:14.272Z,15
2017-07-12T03:40:29.942Z,15
2017-07-12T03:41:45.411Z,20
2017-07-12T03:43:00.931Z,20
2017-07-12T03:44:15.998Z,25
2017-07-12T03:45:31.667Z,30
2017-07-12T03:46:47.074Z,30
2017-07-12T03:48:02.519Z,25
2017-07-12T03:49:17.578Z,25
2017-07-12T03:50:33.250Z,25
2017-07-12T03:51:48.651Z,25
2017-07-12T03:53:04.298Z,20
2017-07-12T03:54:19.998Z,20
2017-07-12T03:55:35.682Z,20
2017-07-12T03:56:51.162Z,20
2017-07-12T03:58:06.630Z,20
2017-07-12T03:59:22.055Z,15
2017-07-12T04:00:37.788Z,10
2017-07-12T04:01:53.309Z,10
2017-07-12T04:03:08.797Z,10
2017-07-12T04:04:24.226Z,10
2017-07-12T04:05:40.071Z,10
2017-07-12T04:06:55.534Z,15
2017-07-12T04:08:09.655Z,15
2017-07-12T04:09:25.100Z,20
2017-07-12T04:10:40.956Z,30
2017-07-12T04:11:56.390Z,35
2017-07-12T04:13:10.517Z,40
2017-07-12T04:14:25.947Z,40
2017-07-12T04:15:41.970Z,45
2017-07-12T04:16:57.440Z,50
2017-07-12T04:18:13.031Z,50
2017-07-12T04:19:27.008Z,45
2017-07-12T04:20:42.703Z,50
2017-07-12T04:21:58.135Z,55
2017-07-12T04:23:13.575Z,55
2017-07-12T04:24:29.037Z,60
2017-07-12T04:25:43.505Z,60
2017-07-12T04:26:58.964Z,60
2017-07-12T04:28:14.382Z,60
2017-07-12T04:29:29.827Z,60
2017-07-12T04:30:44.396Z,65
2017-07-12T04:31:59.828Z,65
2017-07-12T04:33:15.398Z,65
2017-07-12T04:34:29.549Z,70
2017-07-12T04:35:45.474Z,75
2017-07-12T04:37:00.993Z,85
2017-07-12T04:38:16.053Z,90
2017-07-12T04:39:31.567Z,95
2017-07-12T04:40:47.300Z,100
2017-07-12T04:42:02.750Z,105
2017-07-12T04:43:18.227Z,110
2017-07-12T04:44:33.695Z,110
2017-07-12T04:45:49.382Z,110
2017-07-12T04:47:04.843Z,110
2017-07-12T04:48:20.297Z,110
2017-07-12T04:49:35.766Z,105
2017-07-12T04:50:51.467Z,100
2017-07-12T04:52:06.829Z,105
2017-07-12T04:53:22.273Z,110
2017-07-12T04:54:37.715Z,115
2017-07-12T04:55:53.924Z,120
2017-07-12T04:57:09.399Z,120
2017-07-12T04:58:25.045Z,120
2017-07-12T04:59:40.487Z,125
2017-07-12T05:00:56.147Z,130
2017-07-12T05:02:11.608Z,125
2017-07-12T05:03:27.054Z,130
2017-07-12T05:04:42.541Z,130
2017-07-12T05:05:58.185Z,130
2017-07-12T05:07:13.866Z,130
2017-07-12T05:08:29.295Z,135
2017-07-12T05:09:44.716Z,140
2017-07-12T05:11:00.394Z,150
2017-07-12T05:12:16.052Z,170
2017-07-12T05:13:31.521Z,190
2017-07-12T05:14:47.208Z,215
2017-07-12T05:16:02.924Z,230
2017-07-12T05:17:18.368Z,230
2017-07-12T05:18:33.812Z,220
2017-07-12T05:19:49.542Z,215
2017-07-12T05:21:05.268Z,215
2017-07-12T05:22:20.916Z,210
2017-07-12T05:23:36.336Z,220
2017-07-12T05:24:51.768Z,225
2017-07-12T05:26:07.457Z,220
2017-07-12T05:27:22.960Z,215
2017-07-12T05:28:38.536Z,210
2017-07-12T05:29:52.665Z,210
2017-07-12T05:31:08.005Z,215
2017-07-12T05:32:23.554Z,220
2017-07-12T05:33:39.036Z,235
2017-07-12T05:34:54.637Z,245
2017-07-12T05:36:10.316Z,265
2017-07-12T05:37:25.762Z,290
2017-07-12T05:38:41.261Z,300
2017-07-12T05:39:55.422Z,300
2017-07-12T05:41:09.809Z,305
2017-07-12T05:42:25.331Z,320
2017-07-12T05:43:40.765Z,330
2017-07-12T05:44:56.192Z,325
2017-07-12T05:46:11.966Z,310
2017-07-12T05:47:27.463Z,280
2017-07-12T05:48:43.100Z,255
2017-07-12T05:49:58.558Z,245
2017-07-12T05:51:14.256Z,240
2017-07-12T05:52:29.911Z,245
2017-07-12T05:53:45.568Z,245
2017-07-12T05:55:01.031Z,255
2017-07-12T05:56:16.694Z,275
2017-07-12T05:57:32.320Z,290
2017-07-12T05:58:47.808Z,300
2017-07-12T06:00:03.265Z,300
2017-07-12T06:01:18.954Z,305
2017-07-12T06:02:33.102Z,305
2017-07-12T06:03:48.821Z,300
2017-07-12T06:05:04.283Z,315
2017-07-12T06:06:18.703Z,345
2017-07-12T06:07:32.876Z,385
2017-07-12T06:08:48.351Z,430
2017-07-12T06:10:03.767Z,465
2017-07-12T06:11:19.468Z,475
2017-07-12T06:12:33.601Z,495
2017-07-12T06:13:49.074Z,475
2017-07-12T06:15:04.535Z,440
2017-07-12T06:16:20.620Z,435
2017-07-12T06:17:34.955Z,435
2017-07-12T06:18:49.085Z,420
2017-07-12T06:20:04.538Z,410
2017-07-12T06:21:20.548Z,410
2017-07-12T06:22:34.685Z,415
2017-07-12T06:23:50.289Z,420
2017-07-12T06:25:05.933Z,415
2017-07-12T06:26:21.639Z,410
2017-07-12T06:27:37.062Z,400
2017-07-12T06:30:21.638Z,365
2017-07-12T06:31:37.336Z,355
2017-07-12T06:32:52.709Z,355
2017-07-12T06:34:08.159Z,345
2017-07-12T06:35:23.657Z,335
2017-07-12T06:36:39.349Z,330
2017-07-12T06:37:54.814Z,345
2017-07-12T06:39:09.046Z,360
2017-07-12T06:40:24.544Z,385
2017-07-12T06:41:40.258Z,440
2017-07-12T06:42:55.901Z,500
2017-07-12T06:44:10.048Z,580
2017-07-12T06:45:25.544Z,625
2017-07-12T06:46:41.273Z,610
2017-07-12T06:47:56.729Z,595
2017-07-12T06:49:12.206Z,615
2017-07-12T06:50:27.733Z,590
2017-07-12T06:51:43.430Z,510
2017-07-12T06:52:58.889Z,410
2017-07-12T06:54:14.330Z,395
2017-07-12T06:55:29.872Z,375
2017-07-12T06:56:45.581Z,370
2017-07-12T06:58:01.028Z,370
2017-07-12T06:59:15.170Z,355
2017-07-12T07:00:30.638Z,340
2017-07-12T07:01:46.311Z,375
2017-07-12T07:03:01.929Z,415
2017-07-12T07:04:17.363Z,395
2017-07-12T07:05:32.793Z,380
2017-07-12T07:06:48.497Z,385
2017-07-12T07:08:03.972Z,400
2017-07-12T07:09:19.428Z,390
2017-07-12T07:10:33.548Z,320
2017-07-12T07:11:49.276Z,270
2017-07-12T07:13:04.894Z,255
2017-07-12T07:14:20.546Z,260
2017-07-12T07:15:36.181Z,255
2017-07-12T07:16:51.910Z,260
2017-07-12T07:18:07.658Z,275
2017-07-12T07:19:23.312Z,295
2017-07-12T07:20:38.825Z,320
2017-07-12T07:21:54.498Z,345
2017-07-12T07:23:10.101Z,370
2017-07-12T07:24:24.231Z,360
2017-07-12T07:25:39.652Z,340
2017-07-12T07:26:55.367Z,330
2017-07-12T07:28:11.039Z,315
2017-07-12T07:29:26.454Z,310
2017-07-12T07:30:41.578Z,310
2017-07-12T07:31:57.310Z,305
2017-07-12T07:33:12.772Z,305
2017-07-12T07:34:28.222Z,315
2017-07-12T07:35:43.681Z,340
2017-07-12T07:36:59.342Z,360
2017-07-12T07:38:13.490Z,375
2017-07-12T07:39:27.634Z,395
2017-07-12T07:40:43.079Z,425
2017-07-12T07:41:57.503Z,455
2017-07-12T07:43:12.939Z,470
2017-07-12T07:44:28.437Z,505
2017-07-12T07:45:43.926Z,525
2017-07-12T07:46:58.952Z,500
2017-07-12T07:48:14.419Z,475
2017-07-12T07:49:28.471Z,465
2017-07-12T07:50:43.910Z,465
2017-07-12T07:51:59.595Z,470
2017-07-12T07:53:13.638Z,470
2017-07-12T07:54:29.032Z,475
2017-07-12T07:55:44.634Z,475
2017-07-12T07:57:00.446Z,485
2017-07-12T07:58:15.950Z,495
2017-07-12T07:59:31.423Z,510
2017-07-12T08:00:47.036Z,500
2017-07-12T08:02:02.719Z,485
2017-07-12T08:03:17.872Z,490
2017-07-12T08:04:33.364Z,495
2017-07-12T08:05:47.513Z,465
2017-07-12T08:07:03.437Z,470
2017-07-12T08:08:19.090Z,490
2017-07-12T08:09:34.581Z,505
2017-07-12T08:11:20.908Z,465
2017-07-12T08:12:36.597Z,445
2017-07-12T08:13:52.318Z,455
2017-07-12T08:15:07.758Z,515
2017-07-12T08:16:23.218Z,535
2017-07-12T08:17:39.309Z,515
2017-07-12T08:18:54.053Z,440
2017-07-12T08:20:08.169Z,370
2017-07-12T08:21:23.757Z,330
2017-07-12T08:22:39.450Z,325
2017-07-12T08:23:54.921Z,330
2017-07-12T08:25:10.361Z,315
2017-07-12T08:26:26.021Z,310
2017-07-12T08:27:41.711Z,290
2017-07-12T08:28:57.169Z,275
2017-07-12T08:30:12.645Z,285
2017-07-12T08:31:26.870Z,295
2017-07-12T08:32:42.495Z,285
2017-07-12T08:33:58.175Z,280
2017-07-12T08:35:13.626Z,290
2017-07-12T08:36:27.719Z,300
2017-07-12T08:37:43.461Z,310
2017-07-12T08:38:58.937Z,320
2017-07-12T08:40:14.444Z,310
2017-07-12T08:41:28.586Z,305
2017-07-12T08:42:44.257Z,300
2017-07-12T08:43:59.946Z,315
2017-07-12T08:45:15.410Z,330
2017-07-12T08:46:31.013Z,345
2017-07-12T08:47:46.695Z,345
2017-07-12T08:49:02.238Z,345
2017-07-12T08:50:17.703Z,360
2017-07-12T08:51:33.237Z,375
2017-07-12T08:52:48.915Z,385
2017-07-12T08:54:04.407Z,370
2017-07-12T08:55:20.026Z,375
2017-07-12T08:56:34.374Z,395
2017-07-12T08:57:50.045Z,395
2017-07-12T08:59:05.551Z,395
2017-07-12T09:00:19.687Z,380
2017-07-12T09:01:35.146Z,350
2017-07-12T09:02:50.866Z,310
2017-07-12T09:04:06.346Z,290
2017-07-12T09:05:21.858Z,255
2017-07-12T09:06:36.974Z,210
2017-07-12T09:07:52.670Z,195
2017-07-12T09:09:08.126Z,200
2017-07-12T09:10:22.266Z,225
2017-07-12T09:11:37.758Z,235
2017-07-12T09:12:53.479Z,250
2017-07-12T09:14:08.935Z,270
2017-07-12T09:15:24.399Z,275
2017-07-12T09:16:39.850Z,280
2017-07-12T09:17:55.684Z,290
2017-07-12T09:19:11.345Z,285
2017-07-12T09:20:26.949Z,295
2017-07-12T09:21:42.591Z,310
2017-07-12T09:22:58.276Z,320
2017-07-12T09:33:26.795Z,165
2017-07-12T09:34:41.904Z,155
2017-07-12T09:35:57.352Z,145
2017-07-12T09:37:12.814Z,150
2017-07-12T09:38:27.275Z,145
2017-07-12T09:39:42.724Z,140
2017-07-12T09:40:58.279Z,135
2017-07-12T09:42:13.721Z,135
2017-07-12T09:43:29.351Z,130
2017-07-12T09:44:44.805Z,135
2017-07-12T09:46:00.282Z,140
2017-07-12T09:47:15.706Z,150
2017-07-12T09:48:31.523Z,150
2017-07-12T09:49:46.987Z,150
2017-07-12T09:51:02.492Z,155
2017-07-12T09:52:17.912Z,160
2017-07-12T09:53:33.651Z,160
2017-07-12T09:54:47.686Z,160
2017-07-12T09:56:03.098Z,160
2017-07-12T09:57:18.492Z,160
2017-07-12T09:58:34.179Z,160
2017-07-12T09:59:49.665Z,155
2017-07-12T10:01:05.157Z,150
2017-07-12T10:02:20.650Z,155
2017-07-12T10:03:36.390Z,155
2017-07-12T10:04:51.873Z,155
2017-07-12T10:06:07.299Z,155
2017-07-12T10:07:22.768Z,160
2017-07-12T10:08:38.472Z,160
2017-07-12T10:09:53.981Z,165
2017-07-12T10:11:09.435Z,165
2017-07-12T10:12:24.928Z,165
2017-07-12T10:13:40.643Z,170
2017-07-12T10:14:56.108Z,170
2017-07-12T10:16:11.745Z,170
2017-07-12T10:17:27.317Z,175
2017-07-12T10:18:43.031Z,175
2017-07-12T10:19:58.472Z,175
2017-07-12T10:21:13.917Z,175
2017-07-12T10:22:29.407Z,180
2017-07-12T10:23:45.137Z,180
2017-07-12T10:24:59.453Z,185
2017-07-12T10:26:14.987Z,195
2017-07-12T10:27:30.452Z,200
2017-07-12T10:28:46.166Z,200
2017-07-12T10:30:00.383Z,205
2017-07-12T10:31:16.002Z,210
2017-07-12T10:32:31.495Z,215
2017-07-12T10:33:47.193Z,220
2017-07-12T10:35:02.660Z,225
2017-07-12T10:36:18.264Z,230
2017-07-12T10:37:33.683Z,240
2017-07-12T10:38:49.378Z,255
2017-07-12T10:40:04.944Z,270
2017-07-12T10:41:20.346Z,280
2017-07-12T10:42:35.779Z,275
2017-07-12T10:43:51.542Z,245
2017-07-12T10:45:06.657Z,230
2017-07-12T10:46:22.164Z,225
2017-07-12T10:47:37.738Z,230
2017-07-12T10:48:53.440Z,245
2017-07-12T10:50:08.900Z,240
2017-07-12T10:51:23.010Z,240
2017-07-12T10:52:38.597Z,235
2017-07-12T10:53:54.527Z,230
2017-07-12T10:55:09.982Z,265
2017-07-12T10:56:25.671Z,250
2017-07-12T10:57:39.868Z,230
2017-07-12T10:58:55.573Z,235
2017-07-12T11:00:11.022Z,240
2017-07-12T11:01:25.190Z,245
2017-07-12T11:02:40.637Z,215
2017-07-12T11:03:56.585Z,175
2017-07-12T11:05:12.038Z,195
2017-07-12T11:06:27.125Z,255
2017-07-12T11:07:42.628Z,350
2017-07-12T11:08:58.301Z,350
2017-07-12T11:10:13.741Z,330
2017-07-12T11:11:29.472Z,320
2017-07-12T11:12:45.106Z,305
2017-07-12T11:14:01.002Z,255
2017-07-12T11:15:16.464Z,215
2017-07-12T11:16:31.934Z,190
2017-07-12T11:17:47.405Z,180
2017-07-12T11:19:03.104Z,200
2017-07-12T11:20:17.197Z,195
2017-07-12T11:21:32.662Z,180
2017-07-12T11:22:46.788Z,175
2017-07-12T11:24:02.130Z,165
2017-07-12T11:25:17.593Z,170
2017-07-12T11:26:31.812Z,205
2017-07-12T11:27:45.764Z,250
2017-07-12T11:29:01.648Z,305
2017-07-12T11:30:16.763Z,360
2017-07-12T11:31:32.265Z,415
2017-07-12T11:32:47.779Z,570
2017-07-12T11:34:03.560Z,735
2017-07-12T11:35:19.204Z,790
2017-07-12T11:36:34.649Z,795
2017-07-12T11:37:50.165Z,845
2017-07-12T11:39:05.888Z,875
2017-07-12T11:40:21.404Z,815
2017-07-12T11:41:35.558Z,840
2017-07-12T11:42:51.182Z,935
2017-07-12T11:44:06.865Z,860
2017-07-12T11:45:22.358Z,630
2017-07-12T11:46:37.787Z,545
2017-07-12T11:47:51.982Z,520
2017-07-12T11:49:07.654Z,475
2017-07-12T11:50:53.903Z,530
2017-07-12T11:52:09.695Z,510
2017-07-12T11:53:23.669Z,395
2017-07-12T11:54:39.392Z,350
2017-07-12T11:55:54.799Z,315
2017-07-12T11:57:10.486Z,295
2017-07-12T11:58:25.955Z,300
2017-07-12T11:59:41.660Z,345
2017-07-12T12:00:57.273Z,325
2017-07-12T12:02:13.044Z,310
2017-07-12T12:03:28.493Z,300
2017-07-12T12:04:44.285Z,345
2017-07-12T12:05:59.715Z,440
2017-07-12T12:07:14.077Z,485
2017-07-12T12:08:29.573Z,380
2017-07-12T12:09:45.249Z,325
2017-07-12T12:11:00.513Z,245
2017-07-12T12:12:14.517Z,180
2017-07-12T12:13:29.997Z,165
2017-07-12T12:14:44.383Z,190
2017-07-12T12:15:58.439Z,230
2017-07-12T12:17:12.596Z,185
2017-07-12T12:18:28.073Z,160
2017-07-12T12:19:43.803Z,165
2017-07-12T12:20:59.243Z,165
2017-07-12T12:22:14.745Z,185
2017-07-12T12:23:30.190Z,210
2017-07-12T12:24:59.449Z,200
2017-07-12T12:26:14.915Z,250
2017-07-12T12:27:30.360Z,290
2017-07-12T12:28:45.824Z,265
2017-07-12T12:30:01.522Z,195
2017-07-12T12:31:17.071Z,160
2017-07-12T12:32:32.517Z,120
2017-07-12T12:33:47.976Z,95
2017-07-12T12:35:02.337Z,110
2017-07-12T12:36:17.788Z,160
2017-07-12T12:37:33.235Z,155
2017-07-12T12:38:48.751Z,195
2017-07-12T12:40:04.638Z,175
2017-07-12T12:41:20.191Z,165
2017-07-12T12:42:35.632Z,205
2017-07-12T12:43:51.084Z,150
2017-07-12T12:45:06.716Z,145
2017-07-12T12:46:22.173Z,150
2017-07-12T12:47:37.636Z,160
2017-07-12T12:48:51.657Z,180
2017-07-12T12:50:06.065Z,180
2017-07-12T12:51:20.594Z,205
2017-07-12T12:52:36.205Z,225
2017-07-12T12:53:51.699Z,240
2017-07-12T12:55:06.074Z,220
2017-07-12T12:56:21.515Z,190
2017-07-12T12:57:37.162Z,150
2017-07-12T12:58:52.614Z,155
2017-07-12T13:00:08.555Z,215
2017-07-12T13:01:22.702Z,210
2017-07-12T13:02:38.239Z,300
2017-07-12T13:03:53.711Z,300
2017-07-12T13:05:09.599Z,285
2017-07-12T13:06:25.084Z,265
2017-07-12T13:07:40.585Z,215
2017-07-12T13:08:56.293Z,210
2017-07-12T13:10:12.176Z,220
2017-07-12T13:11:27.627Z,210
2017-07-12T13:12:43.123Z,195
2017-07-12T13:13:58.581Z,190
2017-07-12T13:15:14.273Z,170
2017-07-12T13:16:29.860Z,185
2017-07-12T13:17:45.315Z,180
2017-07-12T13:19:00.839Z,190
2017-07-12T13:20:16.594Z,195
2017-07-12T13:21:32.072Z,190
2017-07-12T13:22:47.567Z,175
2017-07-12T13:24:03.023Z,195
2017-07-12T13:25:18.725Z,190
2017-07-12T13:26:34.171Z,170
2017-07-12T13:27:49.284Z,175
2017-07-12T13:29:04.831Z,190
2017-07-12T13:30:20.511Z,195
2017-07-12T13:31:34.942Z,200
2017-07-12T13:32:50.531Z,200
2017-07-12T13:34:06.242Z,195
2017-07-12T13:35:21.992Z,195
2017-07-12T13:36:37.468Z,195
2017-07-12T13:37:52.533Z,195
2017-07-12T13:39:08.057Z,200
2017-07-12T13:40:23.809Z,205
2017-07-12T13:41:39.303Z,215
2017-07-12T13:42:54.754Z,230
2017-07-12T13:44:10.199Z,240
2017-07-12T13:45:25.874Z,240
2017-07-12T13:46:40.041Z,235
2017-07-12T13:47:55.513Z,225
2017-07-12T13:49:11.065Z,210
2017-07-12T13:50:26.778Z,205
2017-07-12T13:51:42.265Z,200
2017-07-12T13:52:57.735Z,200
2017-07-12T13:54:13.171Z,185
2017-07-12T13:55:28.925Z,175
2017-07-12T13:56:44.451Z,175
2017-07-12T13:57:59.882Z,180
2017-07-12T13:59:15.342Z,165
2017-07-12T14:00:31.044Z,140
2017-07-12T14:01:46.694Z,130
2017-07-12T14:03:02.186Z,125
2017-07-12T14:04:17.269Z,145
2017-07-12T14:05:32.961Z,130
2017-07-12T14:06:48.456Z,110
2017-07-12T14:08:03.910Z,145
2017-07-12T14:09:19.657Z,185
2017-07-12T14:10:35.374Z,225
2017-07-12T14:11:50.829Z,220
2017-07-12T14:13:06.309Z,195
2017-07-12T14:14:21.870Z,170
2017-07-12T14:15:37.221Z,170
2017-07-12T14:16:52.719Z,170
2017-07-12T14:18:08.297Z,175
2017-07-12T14:19:23.819Z,170
2017-07-12T14:20:39.501Z,185
2017-07-12T14:21:55.150Z,170
2017-07-12T14:23:10.692Z,145
2017-07-12T14:24:26.119Z,130
2017-07-12T14:25:41.837Z,135
2017-07-12T14:26:57.316Z,150
2017-07-12T14:28:12.774Z,165
2017-07-12T14:29:28.465Z,165
2017-07-12T14:30:44.240Z,165
2017-07-12T14:31:59.692Z,155
2017-07-12T14:33:15.136Z,150
2017-07-12T14:34:30.607Z,145
2017-07-12T14:35:45.916Z,135
2017-07-12T14:37:01.561Z,175
2017-07-12T14:38:17.216Z,245
2017-07-12T14:39:32.783Z,270
2017-07-12T14:40:48.711Z,265
2017-07-12T14:42:02.946Z,220
2017-07-12T14:43:18.492Z,220
2017-07-12T14:44:34.000Z,230
2017-07-12T14:45:49.713Z,265
2017-07-12T14:47:05.195Z,265
2017-07-12T14:48:20.751Z,260
2017-07-12T14:49:34.904Z,255
2017-07-12T14:50:50.643Z,270
2017-07-12T14:52:06.118Z,320
2017-07-12T14:53:21.656Z,350
2017-07-12T14:54:37.140Z,335
2017-07-12T14:55:52.989Z,295
2017-07-12T14:57:08.476Z,285
2017-07-12T14:58:23.965Z,285
2017-07-12T14:59:39.458Z,285
2017-07-12T15:00:55.361Z,300
2017-07-12T15:02:10.825Z,295
2017-07-12T15:03:26.325Z,285
2017-07-12T15:04:41.957Z,290
2017-07-12T15:05:57.756Z,255
2017-07-12T15:07:13.217Z,220
2017-07-12T15:08:28.885Z,225
2017-07-12T15:09:41.647Z,245
2017-07-12T15:10:57.365Z,255
2017-07-12T15:12:12.855Z,255
2017-07-12T15:13:28.342Z,260
2017-07-12T15:14:43.835Z,245
2017-07-12T15:15:58.074Z,235
2017-07-12T15:17:13.607Z,240
2017-07-12T15:18:29.058Z,235
2017-07-12T15:19:44.662Z,240
2017-07-12T15:21:00.375Z,250
2017-07-12T15:22:15.837Z,260
2017-07-12T15:23:31.341Z,265
2017-07-12T15:24:45.517Z,275
2017-07-12T15:25:59.786Z,280
2017-07-12T15:27:15.380Z,290
2017-07-12T15:28:30.853Z,300
2017-07-12T15:29:46.405Z,305
2017-07-12T15:31:02.242Z,290
2017-07-12T15:32:17.735Z,265
2017-07-12T15:33:33.193Z,250
2017-07-12T15:34:48.819Z,235
2017-07-12T15:36:04.554Z,225
2017-07-12T15:37:19.970Z,220
2017-07-12T15:38:35.409Z,195
2017-07-12T15:39:50.824Z,185
2017-07-12T15:41:06.555Z,190
2017-07-12T15:42:52.891Z,175
2017-07-12T15:44:08.396Z,165
2017-07-12T15:45:23.909Z,180
2017-07-12T15:46:39.630Z,190
2017-07-12T15:47:55.088Z,160
2017-07-12T15:49:10.586Z,210
2017-07-12T15:50:26.078Z,220
2017-07-12T15:51:40.335Z,245
2017-07-12T15:52:55.765Z,260
2017-07-12T15:54:11.408Z,270
2017-07-12T15:55:26.502Z,260
2017-07-12T15:56:42.228Z,250
2017-07-12T15:57:57.656Z,220
2017-07-12T15:59:13.156Z,205
2017-07-12T16:00:28.615Z,185
2017-07-12T16:01:44.315Z,180
2017-07-12T16:02:59.838Z,185
2017-07-12T16:04:15.302Z,190
2017-07-12T16:05:30.858Z,175
2017-07-12T16:06:46.783Z,125
2017-07-12T16:08:02.483Z,55
2017-07-12T16:09:17.577Z,30
2017-07-12T16:10:33.438Z,45
2017-07-12T16:12:02.771Z,75
2017-07-12T16:13:18.250Z,80
2017-07-12T16:14:33.725Z,80
2017-07-12T16:15:49.177Z,90
2017-07-12T16:17:05.073Z,95
2017-07-12T16:18:19.221Z,90
2017-07-12T16:19:34.751Z,80
2017-07-12T16:20:50.198Z,85
2017-07-12T16:22:03.976Z,90
2017-07-12T16:23:19.557Z,85
2017-07-12T16:24:35.048Z,105
2017-07-12T16:25:50.596Z,125
2017-07-12T16:27:06.333Z,145
2017-07-12T16:28:21.941Z,150
2017-07-12T16:29:37.432Z,150
2017-07-12T16:30:53.138Z,145
2017-07-12T16:32:08.826Z,125
2017-07-12T16:33:22.994Z,125
2017-07-12T16:34:38.766Z,125
2017-07-12T16:35:54.224Z,130
2017-07-12T16:37:09.995Z,135
2017-07-12T16:38:25.643Z,140
2017-07-12T16:39:41.315Z,145
2017-07-12T16:40:56.775Z,140
2017-07-12T16:42:12.501Z,135
2017-07-12T16:43:27.736Z,140
2017-07-12T16:44:43.240Z,150
2017-07-12T16:45:58.720Z,145
2017-07-12T16:47:14.518Z,140
2017-07-12T16:48:30.012Z,125
2017-07-12T16:49:45.564Z,115
2017-07-12T16:51:01.171Z,100
2017-07-12T16:52:16.933Z,85
2017-07-12T16:53:32.654Z,85
2017-07-12T16:54:48.359Z,80
2017-07-12T16:56:03.801Z,85
2017-07-12T16:57:19.522Z,85
2017-07-12T16:58:35.020Z,80
2017-07-12T16:59:50.557Z,80
2017-07-12T17:01:06.082Z,85
2017-07-12T17:02:21.869Z,85
2017-07-12T17:03:37.358Z,85
2017-07-12T17:04:52.900Z,85
2017-07-12T17:06:08.366Z,80
2017-07-12T17:07:24.076Z,90
2017-07-12T17:08:38.209Z,85
2017-07-12T17:09:53.720Z,80
2017-07-12T17:11:09.158Z,75
2017-07-12T17:12:24.892Z,75
2017-07-12T17:13:38.687Z,70
2017-07-12T17:14:54.120Z,70
2017-07-12T17:16:09.624Z,70
2017-07-12T17:17:25.346Z,65
2017-07-12T17:18:40.902Z,60
2017-07-12T17:19:56.409Z,60
2017-07-12T17:21:11.863Z,60
2017-07-12T17:22:41.376Z,65
2017-07-12T17:23:56.881Z,65
2017-07-12T17:25:12.408Z,65
2017-07-12T17:26:27.837Z,70
2017-07-12T17:27:43.590Z,70
2017-07-12T17:28:59.138Z,75
2017-07-12T17:30:14.605Z,75
2017-07-12T17:31:30.086Z,70
2017-07-12T17:32:45.882Z,65
2017-07-12T17:34:00.018Z,60
2017-07-12T17:35:15.505Z,65
2017-07-12T17:36:29.548Z,60
2017-07-12T17:37:45.403Z,60
2017-07-12T17:39:00.884Z,55
2017-07-12T17:40:16.383Z,55
2017-07-12T17:41:31.927Z,55
2017-07-12T17:42:47.862Z,45
2017-07-12T17:44:03.397Z,40
2017-07-12T17:45:18.884Z,40
2017-07-12T17:46:34.434Z,40
2017-07-12T17:47:50.209Z,35
2017-07-12T17:49:05.720Z,35
2017-07-12T17:50:21.263Z,30